sensor_id;sensor_type;location;lat;lon;timestamp;P1;durP1;ratioP1;P2;durP2;ratioP2
23617;SDS011;18207;32.078;34.818;2023-05-10T00:00:28;1.08;;;1.08;;
23617;SDS011;18207;32.078;34.818;2023-05-10T00:02:59;1.52;;;1.42;;
23617;SDS011;18207;32.078;34.818;2023-05-10T00:05:31;1.38;;;1.27;;
23617;SDS011;18207;32.078;34.818;2023-05-10T00:08:01;1.50;;;1.40;;
23617;SDS011;18207;32.078;34.818;2023-05-10T00:10:32;1.20;;;1.20;;
23617;SDS011;18207;32.078;34.818;2023-05-10T00:13:01;1.60;;;1.50;;
23617;SDS011;18207;32.078;34.818;2023-05-10T00:15:32;1.17;;;1.17;;
23617;SDS011;18207;32.078;34.818;2023-05-10T00:18:04;1.48;;;1.35;;
23617;SDS011;18207;32.078;34.818;2023-05-10T00:20:34;1.50;;;1.40;;
23617;SDS011;18207;32.078;34.818;2023-05-10T00:23:04;1.30;;;1.27;;
23617;SDS011;18207;32.078;34.818;2023-05-10T00:25:35;1.60;;;1.50;;
23617;SDS011;18207;32.078;34.818;2023-05-10T00:28:04;1.50;;;1.40;;
23617;SDS011;18207;32.078;34.818;2023-05-10T00:30:34;1.42;;;1.33;;
23617;SDS011;18207;32.078;34.818;2023-05-10T00:33:06;1.40;;;1.30;;
23617;SDS011;18207;32.078;34.818;2023-05-10T00:35:36;1.45;;;1.35;;
23617;SDS011;18207;32.078;34.818;2023-05-10T00:38:07;1.60;;;1.50;;
23617;SDS011;18207;32.078;34.818;2023-05-10T00:40:37;1.40;;;1.40;;
23617;SDS011;18207;32.078;34.818;2023-05-10T00:43:08;1.40;;;1.40;;
23617;SDS011;18207;32.078;34.818;2023-05-10T00:45:39;1.60;;;1.50;;
23617;SDS011;18207;32.078;34.818;2023-05-10T00:48:11;1.98;;;1.50;;
23617;SDS011;18207;32.078;34.818;2023-05-10T00:50:42;1.80;;;1.70;;
23617;SDS011;18207;32.078;34.818;2023-05-10T00:53:12;1.25;;;1.17;;
23617;SDS011;18207;32.078;34.818;2023-05-10T00:55:43;1.45;;;1.35;;
23617;SDS011;18207;32.078;34.818;2023-05-10T00:58:13;1.45;;;1.38;;
23617;SDS011;18207;32.078;34.818;2023-05-10T01:00:44;1.20;;;1.15;;
23617;SDS011;18207;32.078;34.818;2023-05-10T01:03:18;1.45;;;1.35;;
23617;SDS011;18207;32.078;34.818;2023-05-10T01:05:48;1.45;;;1.30;;
23617;SDS011;18207;32.078;34.818;2023-05-10T01:08:18;1.50;;;1.40;;
23617;SDS011;18207;32.078;34.818;2023-05-10T01:10:49;1.35;;;1.25;;
23617;SDS011;18207;32.078;34.818;2023-05-10T01:13:23;1.45;;;1.35;;
23617;SDS011;18207;32.078;34.818;2023-05-10T01:16:01;1.60;;;1.50;;
23617;SDS011;18207;32.078;34.818;2023-05-10T01:18:36;1.10;;;1.10;;
23617;SDS011;18207;32.078;34.818;2023-05-10T01:21:13;1.33;;;1.33;;
23617;SDS011;18207;32.078;34.818;2023-05-10T01:23:59;1.45;;;1.35;;
23617;SDS011;18207;32.078;34.818;2023-05-10T01:31:03;1.30;;;1.20;;
23617;SDS011;18207;32.078;34.818;2023-05-10T01:34:00;1.60;;;1.50;;
23617;SDS011;18207;32.078;34.818;2023-05-10T01:36:39;1.42;;;1.33;;
23617;SDS011;18207;32.078;34.818;2023-05-10T01:39:17;1.55;;;1.45;;
23617;SDS011;18207;32.078;34.818;2023-05-10T01:41:57;1.60;;;1.50;;
23617;SDS011;18207;32.078;34.818;2023-05-10T01:44:38;1.73;;;1.63;;
23617;SDS011;18207;32.078;34.818;2023-05-10T01:47:20;1.25;;;1.25;;
23617;SDS011;18207;32.078;34.818;2023-05-10T01:50:02;1.55;;;1.27;;
23617;SDS011;18207;32.078;34.818;2023-05-10T01:52:41;1.20;;;1.20;;
23617;SDS011;18207;32.078;34.818;2023-05-10T01:55:16;1.50;;;1.40;;
23617;SDS011;18207;32.078;34.818;2023-05-10T01:57:52;1.50;;;1.40;;
23617;SDS011;18207;32.078;34.818;2023-05-10T02:00:32;1.42;;;1.33;;
23617;SDS011;18207;32.078;34.818;2023-05-10T02:03:05;1.38;;;1.30;;
23617;SDS011;18207;32.078;34.818;2023-05-10T02:05:39;1.40;;;1.38;;
23617;SDS011;18207;32.078;34.818;2023-05-10T02:08:13;1.33;;;1.23;;
23617;SDS011;18207;32.078;34.818;2023-05-10T02:10:46;1.17;;;1.17;;
23617;SDS011;18207;32.078;34.818;2023-05-10T02:13:20;1.20;;;1.20;;
23617;SDS011;18207;32.078;34.818;2023-05-10T02:15:53;1.50;;;1.40;;
23617;SDS011;18207;32.078;34.818;2023-05-10T02:18:25;1.50;;;1.38;;
23617;SDS011;18207;32.078;34.818;2023-05-10T02:20:58;1.38;;;1.35;;
23617;SDS011;18207;32.078;34.818;2023-05-10T02:23:30;1.70;;;1.60;;
23617;SDS011;18207;32.078;34.818;2023-05-10T02:26:03;1.42;;;1.33;;
23617;SDS011;18207;32.078;34.818;2023-05-10T02:28:35;1.27;;;1.27;;
23617;SDS011;18207;32.078;34.818;2023-05-10T02:31:06;1.70;;;1.60;;
23617;SDS011;18207;32.078;34.818;2023-05-10T02:33:38;1.73;;;1.63;;
23617;SDS011;18207;32.078;34.818;2023-05-10T02:36:13;1.58;;;1.48;;
23617;SDS011;18207;32.078;34.818;2023-05-10T02:38:45;1.67;;;1.58;;
23617;SDS011;18207;32.078;34.818;2023-05-10T02:41:17;1.52;;;1.42;;
23617;SDS011;18207;32.078;34.818;2023-05-10T02:43:50;1.60;;;1.50;;
23617;SDS011;18207;32.078;34.818;2023-05-10T02:46:29;1.77;;;1.67;;
23617;SDS011;18207;32.078;34.818;2023-05-10T02:49:00;1.60;;;1.55;;
23617;SDS011;18207;32.078;34.818;2023-05-10T02:51:34;1.38;;;1.38;;
23617;SDS011;18207;32.078;34.818;2023-05-10T02:54:18;1.73;;;1.63;;
23617;SDS011;18207;32.078;34.818;2023-05-10T02:56:55;1.88;;;1.73;;
23617;SDS011;18207;32.078;34.818;2023-05-10T02:59:28;1.83;;;1.73;;
23617;SDS011;18207;32.078;34.818;2023-05-10T03:01:59;1.77;;;1.67;;
23617;SDS011;18207;32.078;34.818;2023-05-10T03:04:30;1.90;;;1.80;;
23617;SDS011;18207;32.078;34.818;2023-05-10T03:07:01;2.13;;;2.03;;
23617;SDS011;18207;32.078;34.818;2023-05-10T03:09:31;2.00;;;1.90;;
23617;SDS011;18207;32.078;34.818;2023-05-10T03:12:03;2.05;;;1.95;;
23617;SDS011;18207;32.078;34.818;2023-05-10T03:14:49;2.00;;;1.90;;
23617;SDS011;18207;32.078;34.818;2023-05-10T03:17:30;1.98;;;1.88;;
23617;SDS011;18207;32.078;34.818;2023-05-10T03:20:16;2.10;;;2.00;;
23617;SDS011;18207;32.078;34.818;2023-05-10T03:22:59;2.05;;;1.95;;
23617;SDS011;18207;32.078;34.818;2023-05-10T03:25:36;2.20;;;2.10;;
23617;SDS011;18207;32.078;34.818;2023-05-10T03:28:10;2.00;;;1.90;;
23617;SDS011;18207;32.078;34.818;2023-05-10T03:30:42;2.40;;;2.20;;
23617;SDS011;18207;32.078;34.818;2023-05-10T03:33:15;2.35;;;2.25;;
23617;SDS011;18207;32.078;34.818;2023-05-10T03:35:45;2.47;;;2.28;;
23617;SDS011;18207;32.078;34.818;2023-05-10T03:38:17;2.47;;;2.30;;
23617;SDS011;18207;32.078;34.818;2023-05-10T03:40:48;2.65;;;2.45;;
23617;SDS011;18207;32.078;34.818;2023-05-10T03:43:18;2.80;;;2.60;;
23617;SDS011;18207;32.078;34.818;2023-05-10T03:45:48;2.35;;;2.25;;
23617;SDS011;18207;32.078;34.818;2023-05-10T03:48:18;2.63;;;2.53;;
23617;SDS011;18207;32.078;34.818;2023-05-10T03:50:49;2.55;;;2.40;;
23617;SDS011;18207;32.078;34.818;2023-05-10T03:53:21;2.45;;;2.30;;
23617;SDS011;18207;32.078;34.818;2023-05-10T03:55:51;2.60;;;2.40;;
23617;SDS011;18207;32.078;34.818;2023-05-10T03:58:21;2.45;;;2.35;;
23617;SDS011;18207;32.078;34.818;2023-05-10T04:00:51;2.45;;;2.28;;
23617;SDS011;18207;32.078;34.818;2023-05-10T04:03:22;2.50;;;2.30;;
23617;SDS011;18207;32.078;34.818;2023-05-10T04:05:58;2.40;;;2.30;;
23617;SDS011;18207;32.078;34.818;2023-05-10T04:08:31;2.78;;;2.58;;
23617;SDS011;18207;32.078;34.818;2023-05-10T04:11:05;2.42;;;2.33;;
23617;SDS011;18207;32.078;34.818;2023-05-10T04:13:36;2.85;;;2.67;;
23617;SDS011;18207;32.078;34.818;2023-05-10T04:16:06;2.60;;;2.40;;
23617;SDS011;18207;32.078;34.818;2023-05-10T04:18:37;3.10;;;2.90;;
23617;SDS011;18207;32.078;34.818;2023-05-10T04:21:11;2.30;;;2.20;;
23617;SDS011;18207;32.078;34.818;2023-05-10T04:23:43;2.42;;;2.22;;
23617;SDS011;18207;32.078;34.818;2023-05-10T04:26:13;2.30;;;2.20;;
23617;SDS011;18207;32.078;34.818;2023-05-10T04:28:44;2.47;;;2.35;;
23617;SDS011;18207;32.078;34.818;2023-05-10T04:31:14;2.55;;;2.38;;
23617;SDS011;18207;32.078;34.818;2023-05-10T04:33:44;2.60;;;2.40;;
23617;SDS011;18207;32.078;34.818;2023-05-10T04:36:13;2.45;;;2.25;;
23617;SDS011;18207;32.078;34.818;2023-05-10T04:38:44;2.10;;;2.00;;
23617;SDS011;18207;32.078;34.818;2023-05-10T04:41:15;2.40;;;2.20;;
23617;SDS011;18207;32.078;34.818;2023-05-10T04:43:45;2.35;;;2.22;;
23617;SDS011;18207;32.078;34.818;2023-05-10T04:46:16;2.15;;;2.03;;
23617;SDS011;18207;32.078;34.818;2023-05-10T04:48:47;2.03;;;1.92;;
23617;SDS011;18207;32.078;34.818;2023-05-10T04:51:17;2.40;;;2.20;;
23617;SDS011;18207;32.078;34.818;2023-05-10T04:53:50;2.83;;;2.50;;
23617;SDS011;18207;32.078;34.818;2023-05-10T04:56:31;1.92;;;1.83;;
23617;SDS011;18207;32.078;34.818;2023-05-10T04:59:01;2.20;;;2.00;;
23617;SDS011;18207;32.078;34.818;2023-05-10T05:01:31;2.17;;;2.08;;
23617;SDS011;18207;32.078;34.818;2023-05-10T05:04:01;2.38;;;2.17;;
23617;SDS011;18207;32.078;34.818;2023-05-10T05:06:32;2.30;;;2.20;;
23617;SDS011;18207;32.078;34.818;2023-05-10T05:09:04;2.58;;;2.38;;
23617;SDS011;18207;32.078;34.818;2023-05-10T05:11:34;2.40;;;2.20;;
23617;SDS011;18207;32.078;34.818;2023-05-10T05:14:05;2.40;;;2.20;;
23617;SDS011;18207;32.078;34.818;2023-05-10T05:16:35;2.28;;;2.17;;
23617;SDS011;18207;32.078;34.818;2023-05-10T05:19:05;2.47;;;2.33;;
23617;SDS011;18207;32.078;34.818;2023-05-10T05:21:36;2.15;;;2.05;;
23617;SDS011;18207;32.078;34.818;2023-05-10T05:24:08;2.00;;;1.90;;
23617;SDS011;18207;32.078;34.818;2023-05-10T05:26:39;2.25;;;2.08;;
23617;SDS011;18207;32.078;34.818;2023-05-10T05:29:09;1.90;;;1.80;;
23617;SDS011;18207;32.078;34.818;2023-05-10T05:31:39;2.10;;;2.00;;
23617;SDS011;18207;32.078;34.818;2023-05-10T05:34:09;2.20;;;2.10;;
23617;SDS011;18207;32.078;34.818;2023-05-10T05:36:39;2.20;;;2.10;;
23617;SDS011;18207;32.078;34.818;2023-05-10T05:39:11;2.10;;;2.00;;
23617;SDS011;18207;32.078;34.818;2023-05-10T05:41:41;2.17;;;1.98;;
23617;SDS011;18207;32.078;34.818;2023-05-10T05:44:11;1.92;;;1.83;;
23617;SDS011;18207;32.078;34.818;2023-05-10T05:46:41;2.58;;;2.40;;
23617;SDS011;18207;32.078;34.818;2023-05-10T05:49:12;2.00;;;1.90;;
23617;SDS011;18207;32.078;34.818;2023-05-10T05:51:41;2.20;;;2.00;;
23617;SDS011;18207;32.078;34.818;2023-05-10T05:54:12;1.83;;;1.73;;
23617;SDS011;18207;32.078;34.818;2023-05-10T05:56:43;2.05;;;1.95;;
23617;SDS011;18207;32.078;34.818;2023-05-10T05:59:12;2.35;;;2.15;;
23617;SDS011;18207;32.078;34.818;2023-05-10T06:01:42;2.03;;;1.92;;
23617;SDS011;18207;32.078;34.818;2023-05-10T06:04:12;2.03;;;1.83;;
23617;SDS011;18207;32.078;34.818;2023-05-10T06:06:43;2.00;;;1.90;;
23617;SDS011;18207;32.078;34.818;2023-05-10T06:09:15;2.05;;;1.95;;
23617;SDS011;18207;32.078;34.818;2023-05-10T06:11:45;1.90;;;1.80;;
23617;SDS011;18207;32.078;34.818;2023-05-10T06:14:15;1.83;;;1.73;;
23617;SDS011;18207;32.078;34.818;2023-05-10T06:16:45;2.00;;;1.90;;
23617;SDS011;18207;32.078;34.818;2023-05-10T06:19:15;1.90;;;1.80;;
23617;SDS011;18207;32.078;34.818;2023-05-10T06:21:45;2.20;;;2.10;;
23617;SDS011;18207;32.078;34.818;2023-05-10T06:24:21;2.25;;;2.08;;
23617;SDS011;18207;32.078;34.818;2023-05-10T06:26:50;2.10;;;1.90;;
23617;SDS011;18207;32.078;34.818;2023-05-10T06:29:20;1.85;;;1.75;;
23617;SDS011;18207;32.078;34.818;2023-05-10T06:31:50;2.03;;;1.92;;
23617;SDS011;18207;32.078;34.818;2023-05-10T06:34:21;2.70;;;2.25;;
23617;SDS011;18207;32.078;34.818;2023-05-10T06:36:51;1.92;;;1.83;;
23617;SDS011;18207;32.078;34.818;2023-05-10T06:39:22;2.80;;;2.15;;
23617;SDS011;18207;32.078;34.818;2023-05-10T06:41:52;2.15;;;2.05;;
23617;SDS011;18207;32.078;34.818;2023-05-10T06:44:22;2.20;;;2.10;;
23617;SDS011;18207;32.078;34.818;2023-05-10T06:46:52;2.65;;;2.00;;
23617;SDS011;18207;32.078;34.818;2023-05-10T06:49:22;1.90;;;1.80;;
23617;SDS011;18207;32.078;34.818;2023-05-10T06:51:53;1.95;;;1.85;;
23617;SDS011;18207;32.078;34.818;2023-05-10T06:54:26;2.17;;;1.98;;
23617;SDS011;18207;32.078;34.818;2023-05-10T06:56:56;2.15;;;2.00;;
23617;SDS011;18207;32.078;34.818;2023-05-10T06:59:29;2.10;;;1.90;;
23617;SDS011;18207;32.078;34.818;2023-05-10T07:01:59;1.90;;;1.80;;
23617;SDS011;18207;32.078;34.818;2023-05-10T07:04:30;2.13;;;2.03;;
23617;SDS011;18207;32.078;34.818;2023-05-10T07:07:00;1.98;;;1.88;;
23617;SDS011;18207;32.078;34.818;2023-05-10T07:09:32;1.88;;;1.77;;
23617;SDS011;18207;32.078;34.818;2023-05-10T07:12:03;2.22;;;2.03;;
23617;SDS011;18207;32.078;34.818;2023-05-10T07:14:37;2.80;;;2.10;;
23617;SDS011;18207;32.078;34.818;2023-05-10T07:17:07;3.55;;;1.75;;
23617;SDS011;18207;32.078;34.818;2023-05-10T07:19:37;2.15;;;2.05;;
23617;SDS011;18207;32.078;34.818;2023-05-10T07:22:07;1.90;;;1.80;;
23617;SDS011;18207;32.078;34.818;2023-05-10T07:24:40;2.15;;;1.95;;
23617;SDS011;18207;32.078;34.818;2023-05-10T07:27:10;1.95;;;1.85;;
23617;SDS011;18207;32.078;34.818;2023-05-10T07:29:41;1.92;;;1.83;;
23617;SDS011;18207;32.078;34.818;2023-05-10T07:32:11;1.95;;;1.85;;
23617;SDS011;18207;32.078;34.818;2023-05-10T07:34:42;2.00;;;1.90;;
23617;SDS011;18207;32.078;34.818;2023-05-10T07:37:12;2.13;;;2.00;;
23617;SDS011;18207;32.078;34.818;2023-05-10T07:39:44;2.10;;;2.00;;
23617;SDS011;18207;32.078;34.818;2023-05-10T07:42:14;1.90;;;1.80;;
23617;SDS011;18207;32.078;34.818;2023-05-10T07:44:44;2.30;;;2.10;;
23617;SDS011;18207;32.078;34.818;2023-05-10T07:47:14;1.77;;;1.67;;
23617;SDS011;18207;32.078;34.818;2023-05-10T07:49:44;1.92;;;1.83;;
23617;SDS011;18207;32.078;34.818;2023-05-10T07:52:14;2.13;;;2.03;;
23617;SDS011;18207;32.078;34.818;2023-05-10T07:54:48;2.28;;;1.83;;
23617;SDS011;18207;32.078;34.818;2023-05-10T07:57:19;1.80;;;1.70;;
23617;SDS011;18207;32.078;34.818;2023-05-10T07:59:49;1.80;;;1.70;;
23617;SDS011;18207;32.078;34.818;2023-05-10T08:02:19;2.13;;;1.95;;
23617;SDS011;18207;32.078;34.818;2023-05-10T08:04:49;1.90;;;1.80;;
23617;SDS011;18207;32.078;34.818;2023-05-10T08:07:19;1.77;;;1.67;;
23617;SDS011;18207;32.078;34.818;2023-05-10T08:09:52;2.30;;;1.67;;
23617;SDS011;18207;32.078;34.818;2023-05-10T08:12:22;1.88;;;1.77;;
23617;SDS011;18207;32.078;34.818;2023-05-10T08:14:52;1.80;;;1.70;;
23617;SDS011;18207;32.078;34.818;2023-05-10T08:17:22;2.20;;;2.00;;
23617;SDS011;18207;32.078;34.818;2023-05-10T08:19:52;1.85;;;1.75;;
23617;SDS011;18207;32.078;34.818;2023-05-10T08:22:22;2.40;;;1.77;;
23617;SDS011;18207;32.078;34.818;2023-05-10T08:24:54;2.17;;;2.00;;
23617;SDS011;18207;32.078;34.818;2023-05-10T08:27:25;1.90;;;1.80;;
23617;SDS011;18207;32.078;34.818;2023-05-10T08:29:55;1.85;;;1.75;;
23617;SDS011;18207;32.078;34.818;2023-05-10T08:32:26;2.30;;;2.10;;
23617;SDS011;18207;32.078;34.818;2023-05-10T08:34:56;2.17;;;1.98;;
23617;SDS011;18207;32.078;34.818;2023-05-10T08:37:26;1.95;;;1.85;;
23617;SDS011;18207;32.078;34.818;2023-05-10T08:40:01;2.15;;;2.05;;
23617;SDS011;18207;32.078;34.818;2023-05-10T08:42:33;1.90;;;1.80;;
23617;SDS011;18207;32.078;34.818;2023-05-10T08:45:08;2.10;;;1.83;;
23617;SDS011;18207;32.078;34.818;2023-05-10T08:47:41;2.08;;;1.80;;
23617;SDS011;18207;32.078;34.818;2023-05-10T08:50:12;1.90;;;1.80;;
23617;SDS011;18207;32.078;34.818;2023-05-10T08:52:45;2.00;;;1.90;;
23617;SDS011;18207;32.078;34.818;2023-05-10T08:55:21;2.20;;;2.00;;
23617;SDS011;18207;32.078;34.818;2023-05-10T08:57:52;1.90;;;1.80;;
23617;SDS011;18207;32.078;34.818;2023-05-10T09:00:23;1.90;;;1.80;;
23617;SDS011;18207;32.078;34.818;2023-05-10T09:02:54;2.20;;;2.00;;
23617;SDS011;18207;32.078;34.818;2023-05-10T09:05:25;2.13;;;2.03;;
23617;SDS011;18207;32.078;34.818;2023-05-10T09:07:56;2.28;;;1.98;;
23617;SDS011;18207;32.078;34.818;2023-05-10T09:10:29;2.22;;;2.08;;
23617;SDS011;18207;32.078;34.818;2023-05-10T09:13:00;2.13;;;1.92;;
23617;SDS011;18207;32.078;34.818;2023-05-10T09:15:32;2.00;;;1.90;;
23617;SDS011;18207;32.078;34.818;2023-05-10T09:18:02;2.05;;;1.95;;
23617;SDS011;18207;32.078;34.818;2023-05-10T09:20:33;1.98;;;1.83;;
23617;SDS011;18207;32.078;34.818;2023-05-10T09:23:03;1.90;;;1.80;;
23617;SDS011;18207;32.078;34.818;2023-05-10T09:25:36;1.73;;;1.63;;
23617;SDS011;18207;32.078;34.818;2023-05-10T09:28:07;1.90;;;1.80;;
23617;SDS011;18207;32.078;34.818;2023-05-10T09:30:37;1.83;;;1.73;;
23617;SDS011;18207;32.078;34.818;2023-05-10T09:33:09;1.65;;;1.55;;
23617;SDS011;18207;32.078;34.818;2023-05-10T09:35:39;1.65;;;1.55;;
23617;SDS011;18207;32.078;34.818;2023-05-10T09:38:10;1.80;;;1.70;;
23617;SDS011;18207;32.078;34.818;2023-05-10T09:40:41;2.08;;;1.83;;
23617;SDS011;18207;32.078;34.818;2023-05-10T09:43:22;1.70;;;1.60;;
23617;SDS011;18207;32.078;34.818;2023-05-10T09:45:53;1.80;;;1.67;;
23617;SDS011;18207;32.078;34.818;2023-05-10T09:48:24;1.75;;;1.65;;
23617;SDS011;18207;32.078;34.818;2023-05-10T09:50:57;1.95;;;1.85;;
23617;SDS011;18207;32.078;34.818;2023-05-10T09:53:27;1.85;;;1.75;;
23617;SDS011;18207;32.078;34.818;2023-05-10T09:55:59;1.65;;;1.55;;
23617;SDS011;18207;32.078;34.818;2023-05-10T09:58:30;1.95;;;1.85;;
23617;SDS011;18207;32.078;34.818;2023-05-10T10:01:05;2.10;;;2.00;;
23617;SDS011;18207;32.078;34.818;2023-05-10T10:03:41;1.98;;;1.88;;
23617;SDS011;18207;32.078;34.818;2023-05-10T10:06:11;1.83;;;1.73;;
23617;SDS011;18207;32.078;34.818;2023-05-10T10:08:55;1.98;;;1.88;;
23617;SDS011;18207;32.078;34.818;2023-05-10T10:11:28;1.75;;;1.65;;
23617;SDS011;18207;32.078;34.818;2023-05-10T10:13:59;1.77;;;1.67;;
23617;SDS011;18207;32.078;34.818;2023-05-10T10:16:31;2.35;;;1.90;;
23617;SDS011;18207;32.078;34.818;2023-05-10T10:19:02;1.60;;;1.50;;
23617;SDS011;18207;32.078;34.818;2023-05-10T10:21:31;2.25;;;2.05;;
23617;SDS011;18207;32.078;34.818;2023-05-10T10:24:02;2.00;;;1.90;;
23617;SDS011;18207;32.078;34.818;2023-05-10T10:26:35;2.00;;;1.90;;
23617;SDS011;18207;32.078;34.818;2023-05-10T10:29:12;1.83;;;1.73;;
23617;SDS011;18207;32.078;34.818;2023-05-10T10:31:56;1.65;;;1.55;;
23617;SDS011;18207;32.078;34.818;2023-05-10T10:34:38;1.63;;;1.52;;
23617;SDS011;18207;32.078;34.818;2023-05-10T10:37:09;1.70;;;1.60;;
23617;SDS011;18207;32.078;34.818;2023-05-10T10:39:39;1.60;;;1.50;;
23617;SDS011;18207;32.078;34.818;2023-05-10T10:42:11;1.80;;;1.70;;
23617;SDS011;18207;32.078;34.818;2023-05-10T10:44:42;1.70;;;1.60;;
23617;SDS011;18207;32.078;34.818;2023-05-10T10:47:21;1.55;;;1.52;;
23617;SDS011;18207;32.078;34.818;2023-05-10T10:50:05;1.63;;;1.52;;
23617;SDS011;18207;32.078;34.818;2023-05-10T10:52:37;1.70;;;1.60;;
23617;SDS011;18207;32.078;34.818;2023-05-10T10:55:09;1.75;;;1.65;;
23617;SDS011;18207;32.078;34.818;2023-05-10T10:57:45;1.88;;;1.77;;
23617;SDS011;18207;32.078;34.818;2023-05-10T11:00:18;1.77;;;1.60;;
23617;SDS011;18207;32.078;34.818;2023-05-10T11:02:54;1.70;;;1.60;;
23617;SDS011;18207;32.078;34.818;2023-05-10T11:05:38;1.35;;;1.35;;
23617;SDS011;18207;32.078;34.818;2023-05-10T11:08:17;1.65;;;1.55;;
23617;SDS011;18207;32.078;34.818;2023-05-10T11:11:02;1.55;;;1.45;;
23617;SDS011;18207;32.078;34.818;2023-05-10T11:13:39;1.45;;;1.35;;
23617;SDS011;18207;32.078;34.818;2023-05-10T11:16:16;1.67;;;1.58;;
23617;SDS011;18207;32.078;34.818;2023-05-10T11:18:56;1.55;;;1.50;;
23617;SDS011;18207;32.078;34.818;2023-05-10T11:21:30;1.38;;;1.38;;
23617;SDS011;18207;32.078;34.818;2023-05-10T11:24:02;1.75;;;1.65;;
23617;SDS011;18207;32.078;34.818;2023-05-10T11:26:42;1.45;;;1.35;;
23617;SDS011;18207;32.078;34.818;2023-05-10T11:29:14;1.63;;;1.52;;
23617;SDS011;18207;32.078;34.818;2023-05-10T11:31:45;1.35;;;1.30;;
23617;SDS011;18207;32.078;34.818;2023-05-10T11:34:23;1.50;;;1.40;;
23617;SDS011;18207;32.078;34.818;2023-05-10T11:36:56;1.60;;;1.50;;
23617;SDS011;18207;32.078;34.818;2023-05-10T11:39:26;1.25;;;1.15;;
23617;SDS011;18207;32.078;34.818;2023-05-10T11:41:58;1.45;;;1.35;;
23617;SDS011;18207;32.078;34.818;2023-05-10T11:44:31;1.38;;;1.27;;
23617;SDS011;18207;32.078;34.818;2023-05-10T11:47:02;2.00;;;1.52;;
23617;SDS011;18207;32.078;34.818;2023-05-10T11:49:33;1.52;;;1.42;;
23617;SDS011;18207;32.078;34.818;2023-05-10T11:52:04;1.55;;;1.42;;
23617;SDS011;18207;32.078;34.818;2023-05-10T11:54:35;1.52;;;1.42;;
23617;SDS011;18207;32.078;34.818;2023-05-10T11:57:05;1.80;;;1.35;;
23617;SDS011;18207;32.078;34.818;2023-05-10T11:59:38;1.42;;;1.35;;
23617;SDS011;18207;32.078;34.818;2023-05-10T12:02:09;1.67;;;1.50;;
23617;SDS011;18207;32.078;34.818;2023-05-10T12:04:40;2.20;;;1.42;;
23617;SDS011;18207;32.078;34.818;2023-05-10T12:07:10;1.60;;;1.50;;
23617;SDS011;18207;32.078;34.818;2023-05-10T12:09:42;1.70;;;1.60;;
23617;SDS011;18207;32.078;34.818;2023-05-10T12:12:15;2.17;;;1.60;;
23617;SDS011;18207;32.078;34.818;2023-05-10T12:14:50;1.70;;;1.50;;
23617;SDS011;18207;32.078;34.818;2023-05-10T12:17:20;1.45;;;1.35;;
23617;SDS011;18207;32.078;34.818;2023-05-10T12:19:58;1.65;;;1.55;;
23617;SDS011;18207;32.078;34.818;2023-05-10T12:22:44;1.38;;;1.27;;
23617;SDS011;18207;32.078;34.818;2023-05-10T12:25:16;1.15;;;1.15;;
23617;SDS011;18207;32.078;34.818;2023-05-10T12:27:48;1.38;;;1.27;;
23617;SDS011;18207;32.078;34.818;2023-05-10T12:30:38;1.40;;;1.30;;
23617;SDS011;18207;32.078;34.818;2023-05-10T12:33:09;1.75;;;1.38;;
23617;SDS011;18207;32.078;34.818;2023-05-10T12:35:44;1.60;;;1.50;;
23617;SDS011;18207;32.078;34.818;2023-05-10T12:38:26;2.28;;;1.52;;
23617;SDS011;18207;32.078;34.818;2023-05-10T12:40:58;1.77;;;1.67;;
23617;SDS011;18207;32.078;34.818;2023-05-10T12:43:32;1.55;;;1.45;;
23617;SDS011;18207;32.078;34.818;2023-05-10T12:46:08;1.73;;;1.63;;
23617;SDS011;18207;32.078;34.818;2023-05-10T12:48:41;1.77;;;1.67;;
23617;SDS011;18207;32.078;34.818;2023-05-10T12:51:13;1.80;;;1.70;;
23617;SDS011;18207;32.078;34.818;2023-05-10T12:53:46;1.98;;;1.52;;
23617;SDS011;18207;32.078;34.818;2023-05-10T12:56:16;1.85;;;1.75;;
23617;SDS011;18207;32.078;34.818;2023-05-10T12:58:46;2.03;;;1.83;;
23617;SDS011;18207;32.078;34.818;2023-05-10T13:01:18;1.80;;;1.70;;
23617;SDS011;18207;32.078;34.818;2023-05-10T13:03:49;1.25;;;1.25;;
23617;SDS011;18207;32.078;34.818;2023-05-10T13:06:19;1.50;;;1.27;;
23617;SDS011;18207;32.078;34.818;2023-05-10T13:08:48;1.25;;;1.15;;
23617;SDS011;18207;32.078;34.818;2023-05-10T13:11:19;1.20;;;1.20;;
23617;SDS011;18207;32.078;34.818;2023-05-10T13:13:49;1.00;;;1.00;;
23617;SDS011;18207;32.078;34.818;2023-05-10T13:16:22;1.23;;;1.13;;
23617;SDS011;18207;32.078;34.818;2023-05-10T13:18:52;1.20;;;1.20;;
23617;SDS011;18207;32.078;34.818;2023-05-10T13:21:22;1.20;;;1.20;;
23617;SDS011;18207;32.078;34.818;2023-05-10T13:23:53;1.10;;;1.10;;
23617;SDS011;18207;32.078;34.818;2023-05-10T13:26:23;1.13;;;1.10;;
23617;SDS011;18207;32.078;34.818;2023-05-10T13:28:54;1.20;;;1.10;;
23617;SDS011;18207;32.078;34.818;2023-05-10T13:31:26;1.70;;;1.10;;
23617;SDS011;18207;32.078;34.818;2023-05-10T13:33:56;1.20;;;1.10;;
23617;SDS011;18207;32.078;34.818;2023-05-10T13:36:27;1.25;;;1.15;;
23617;SDS011;18207;32.078;34.818;2023-05-10T13:38:57;0.82;;;0.82;;
23617;SDS011;18207;32.078;34.818;2023-05-10T13:41:28;1.23;;;1.13;;
23617;SDS011;18207;32.078;34.818;2023-05-10T13:43:58;0.95;;;0.95;;
23617;SDS011;18207;32.078;34.818;2023-05-10T13:46:30;1.00;;;1.00;;
23617;SDS011;18207;32.078;34.818;2023-05-10T13:49:01;1.23;;;1.10;;
23617;SDS011;18207;32.078;34.818;2023-05-10T13:51:31;1.00;;;1.00;;
23617;SDS011;18207;32.078;34.818;2023-05-10T13:54:03;0.88;;;0.88;;
23617;SDS011;18207;32.078;34.818;2023-05-10T13:56:32;1.10;;;1.00;;
23617;SDS011;18207;32.078;34.818;2023-05-10T13:59:03;1.38;;;1.10;;
23617;SDS011;18207;32.078;34.818;2023-05-10T14:01:36;1.30;;;1.20;;
23617;SDS011;18207;32.078;34.818;2023-05-10T14:04:07;1.00;;;1.00;;
23617;SDS011;18207;32.078;34.818;2023-05-10T14:06:37;1.40;;;1.30;;
23617;SDS011;18207;32.078;34.818;2023-05-10T14:09:08;1.15;;;1.10;;
23617;SDS011;18207;32.078;34.818;2023-05-10T14:11:38;1.05;;;1.05;;
23617;SDS011;18207;32.078;34.818;2023-05-10T14:14:10;1.38;;;1.27;;
23617;SDS011;18207;32.078;34.818;2023-05-10T14:16:43;1.27;;;1.17;;
23617;SDS011;18207;32.078;34.818;2023-05-10T14:19:14;1.13;;;1.13;;
23617;SDS011;18207;32.078;34.818;2023-05-10T14:21:44;2.38;;;1.00;;
23617;SDS011;18207;32.078;34.818;2023-05-10T14:24:13;1.30;;;1.20;;
23617;SDS011;18207;32.078;34.818;2023-05-10T14:26:44;1.08;;;1.02;;
23617;SDS011;18207;32.078;34.818;2023-05-10T14:29:13;1.15;;;1.05;;
23617;SDS011;18207;32.078;34.818;2023-05-10T14:31:45;1.23;;;1.13;;
23617;SDS011;18207;32.078;34.818;2023-05-10T14:34:15;1.02;;;0.93;;
23617;SDS011;18207;32.078;34.818;2023-05-10T14:36:46;1.33;;;1.02;;
23617;SDS011;18207;32.078;34.818;2023-05-10T14:39:16;1.08;;;0.98;;
23617;SDS011;18207;32.078;34.818;2023-05-10T14:41:46;0.90;;;0.88;;
23617;SDS011;18207;32.078;34.818;2023-05-10T14:44:18;0.98;;;0.98;;
23617;SDS011;18207;32.078;34.818;2023-05-10T14:46:50;1.00;;;1.00;;
23617;SDS011;18207;32.078;34.818;2023-05-10T14:49:20;0.95;;;0.95;;
23617;SDS011;18207;32.078;34.818;2023-05-10T14:51:52;0.90;;;0.88;;
23617;SDS011;18207;32.078;34.818;2023-05-10T14:54:23;1.05;;;0.90;;
23617;SDS011;18207;32.078;34.818;2023-05-10T14:56:54;1.20;;;1.10;;
23617;SDS011;18207;32.078;34.818;2023-05-10T14:59:25;1.02;;;0.90;;
23617;SDS011;18207;32.078;34.818;2023-05-10T15:01:57;0.93;;;0.93;;
23617;SDS011;18207;32.078;34.818;2023-05-10T15:04:29;1.30;;;1.20;;
23617;SDS011;18207;32.078;34.818;2023-05-10T15:06:59;1.30;;;1.05;;